createdAt,value
2022-10-18T00:02:06.480Z,97.87
2022-10-18T00:04:33.656Z,98.14
2022-10-18T00:07:00.039Z,98.26
2022-10-18T00:09:26.748Z,98.43
2022-10-18T00:11:53.719Z,98.83
2022-10-18T00:14:20.174Z,98.89
2022-10-18T00:16:46.488Z,98.96
2022-10-18T00:19:12.860Z,98.81
2022-10-18T00:21:39.328Z,98.89
2022-10-18T00:24:06.080Z,98.54
2022-10-18T00:26:32.412Z,98.56
2022-10-18T00:29:05.028Z,98.68
2022-10-18T00:31:34.450Z,98.97
2022-10-18T00:34:06.278Z,99.19
2022-10-18T00:36:34.020Z,99.35
2022-10-18T00:39:01.845Z,99.25
2022-10-18T00:41:31.775Z,99.17
2022-10-18T00:44:07.295Z,99.09
2022-10-18T00:46:43.389Z,99.32
2022-10-18T00:49:16.996Z,99.62
2022-10-18T00:51:51.996Z,99.38
2022-10-18T00:54:20.621Z,99.18
2022-10-18T00:56:46.988Z,99.04
2022-10-18T00:59:16.306Z,98.85
2022-10-18T01:01:43.120Z,98.83
2022-10-18T01:04:10.148Z,98.87
2022-10-18T01:09:33.903Z,99.03
2022-10-18T01:12:09.358Z,98.24
2022-10-18T01:14:49.747Z,98.46
2022-10-18T01:17:18.704Z,98.95
2022-10-18T01:20:07.128Z,99.11
2022-10-18T01:22:48.658Z,99.28
2022-10-18T01:25:57.061Z,99.12
2022-10-18T01:28:50.117Z,98.84
2022-10-18T01:31:31.811Z,98.85
2022-10-18T01:36:42.590Z,99.11
2022-10-18T01:39:14.319Z,99.33
2022-10-18T01:41:43.219Z,99.31
2022-10-18T01:44:15.014Z,99.03
2022-10-18T01:46:42.799Z,99.06
2022-10-18T01:49:09.109Z,99.29
2022-10-18T01:51:35.547Z,99.26
2022-10-18T01:54:02.398Z,99.08
2022-10-18T01:56:41.065Z,99.20
2022-10-18T01:59:45.166Z,99.41
2022-10-18T02:02:33.266Z,99.55
2022-10-18T02:05:24.657Z,99.35
2022-10-18T02:08:22.733Z,99.47
2022-10-18T02:11:10.708Z,99.65
2022-10-18T02:13:42.573Z,99.87
2022-10-18T02:16:13.777Z,100.00
2022-10-18T02:18:44.283Z,100.00
2022-10-18T02:21:13.397Z,100.00
2022-10-18T02:23:39.729Z,99.97
2022-10-18T02:26:06.642Z,100.00
2022-10-18T02:28:33.031Z,100.00
2022-10-18T02:31:20.746Z,99.77
2022-10-18T02:33:47.020Z,99.95
2022-10-18T02:36:38.898Z,99.93
2022-10-18T02:39:11.559Z,100.00
2022-10-18T02:41:38.060Z,100.00
2022-10-18T02:44:04.551Z,100.00
2022-10-18T02:46:30.923Z,100.00
2022-10-18T02:48:57.247Z,100.00
2022-10-18T02:51:23.690Z,100.00
2022-10-18T02:53:50.002Z,100.00
2022-10-18T02:56:16.367Z,100.00
2022-10-18T02:58:42.707Z,100.00
2022-10-18T03:01:09.117Z,100.00
2022-10-18T03:03:35.466Z,100.00
2022-10-18T03:06:01.773Z,100.00
2022-10-18T03:08:28.165Z,100.00
2022-10-18T03:10:54.494Z,100.00
2022-10-18T03:13:21.047Z,100.00
2022-10-18T03:15:48.117Z,99.93
2022-10-18T03:18:15.028Z,99.93
2022-10-18T03:20:41.392Z,100.00
2022-10-18T03:23:07.715Z,100.00
2022-10-18T03:25:34.337Z,100.00
2022-10-18T03:28:00.878Z,100.00
2022-10-18T03:30:27.337Z,100.00
2022-10-18T03:32:53.634Z,100.00
2022-10-18T03:35:20.441Z,100.00
2022-10-18T03:37:46.838Z,100.00
2022-10-18T03:40:13.242Z,100.00
2022-10-18T03:42:39.569Z,100.00
2022-10-18T03:45:06.401Z,100.00
2022-10-18T03:47:32.750Z,100.00
2022-10-18T03:49:59.073Z,100.00
2022-10-18T03:52:25.449Z,99.82
2022-10-18T03:54:51.754Z,99.01
2022-10-18T03:57:18.086Z,98.40
2022-10-18T03:59:44.429Z,98.97
2022-10-18T04:02:10.802Z,99.64
2022-10-18T04:04:37.111Z,99.67
2022-10-18T04:07:03.431Z,99.70
2022-10-18T04:09:29.786Z,99.83
2022-10-18T04:11:56.109Z,99.78
2022-10-18T04:14:22.412Z,99.85
2022-10-18T04:16:48.753Z,99.90
2022-10-18T04:19:15.150Z,99.94
2022-10-18T04:21:41.486Z,100.00
2022-10-18T04:24:07.818Z,100.00
2022-10-18T04:26:34.155Z,100.00
2022-10-18T04:29:00.562Z,100.00
2022-10-18T04:31:27.058Z,100.00
2022-10-18T04:33:53.548Z,100.00
2022-10-18T04:36:19.884Z,100.00
2022-10-18T04:38:46.243Z,100.00
2022-10-18T04:41:12.568Z,100.00
2022-10-18T04:43:38.971Z,100.00
2022-10-18T04:46:05.411Z,100.00
2022-10-18T04:48:31.750Z,100.00
2022-10-18T04:50:58.090Z,100.00
2022-10-18T04:53:24.549Z,100.00
2022-10-18T04:55:51.469Z,100.00
2022-10-18T04:58:18.431Z,100.00
2022-10-18T05:00:45.227Z,100.00
2022-10-18T05:03:13.760Z,100.00
2022-10-18T05:06:00.300Z,100.00
2022-10-18T05:08:26.828Z,100.00
2022-10-18T05:10:53.226Z,100.00
2022-10-18T05:13:19.579Z,100.00
2022-10-18T05:15:46.615Z,100.00
2022-10-18T05:18:13.082Z,100.00
2022-10-18T05:20:39.438Z,100.00
2022-10-18T05:23:05.776Z,100.00
2022-10-18T05:25:32.155Z,100.00
2022-10-18T05:28:00.947Z,100.00
2022-10-18T05:30:29.614Z,100.00
2022-10-18T05:32:55.936Z,100.00
2022-10-18T05:35:22.299Z,100.00
2022-10-18T05:37:48.652Z,100.00
2022-10-18T05:40:15.019Z,100.00
2022-10-18T05:42:41.353Z,100.00
2022-10-18T05:45:08.393Z,100.00
2022-10-18T05:50:07.244Z,100.00
2022-10-18T05:52:33.988Z,100.00
2022-10-18T05:55:00.646Z,100.00
2022-10-18T05:57:26.990Z,100.00
2022-10-18T05:59:53.315Z,100.00
2022-10-18T06:02:19.835Z,100.00
2022-10-18T06:04:46.199Z,100.00
2022-10-18T06:07:12.619Z,100.00
2022-10-18T06:09:38.967Z,100.00
2022-10-18T06:12:05.555Z,100.00
2022-10-18T06:14:31.932Z,100.00
2022-10-18T06:16:58.256Z,100.00
2022-10-18T06:19:24.563Z,100.00
2022-10-18T06:21:50.887Z,100.00
2022-10-18T06:24:17.226Z,100.00
2022-10-18T06:26:43.687Z,100.00
2022-10-18T06:29:10.283Z,100.00
2022-10-18T06:31:36.634Z,100.00
2022-10-18T06:34:02.959Z,100.00
2022-10-18T06:36:29.274Z,100.00
2022-10-18T06:38:55.610Z,100.00
2022-10-18T06:41:22.395Z,100.00
2022-10-18T06:43:49.660Z,100.00
2022-10-18T06:46:16.443Z,100.00
2022-10-18T06:48:42.753Z,100.00
2022-10-18T06:51:09.913Z,99.96
2022-10-18T06:53:44.183Z,99.87
2022-10-18T06:56:19.743Z,99.53
2022-10-18T06:58:46.144Z,99.48
2022-10-18T07:01:15.116Z,99.54
2022-10-18T07:03:41.774Z,99.63
2022-10-18T07:06:10.755Z,99.44
2022-10-18T07:08:38.483Z,99.20
2022-10-18T07:11:06.417Z,99.05
2022-10-18T07:13:33.605Z,98.93
2022-10-18T07:16:05.267Z,98.88
2022-10-18T07:18:36.832Z,98.56
2022-10-18T07:21:05.355Z,97.98
2022-10-18T07:23:42.266Z,97.58
2022-10-18T07:26:34.181Z,96.78
2022-10-18T07:29:10.011Z,96.42
2022-10-18T07:31:37.315Z,96.20
2022-10-18T07:34:05.295Z,95.19
2022-10-18T07:36:31.920Z,94.80
2022-10-18T07:38:58.426Z,94.58
2022-10-18T07:41:25.060Z,94.60
2022-10-18T07:43:52.849Z,94.41
2022-10-18T07:46:20.945Z,94.54
2022-10-18T07:48:47.703Z,94.75
2022-10-18T07:51:14.577Z,94.56
2022-10-18T07:53:41.066Z,95.01
2022-10-18T07:56:13.451Z,94.59
2022-10-18T07:58:39.786Z,94.68
2022-10-18T08:01:07.847Z,94.93
2022-10-18T08:03:35.480Z,95.07
2022-10-18T08:06:03.132Z,95.80
2022-10-18T08:08:30.101Z,95.75
2022-10-18T08:11:02.123Z,96.01
2022-10-18T08:13:29.182Z,95.87
2022-10-18T08:16:06.791Z,95.82
2022-10-18T08:18:33.746Z,96.61
2022-10-18T08:21:01.422Z,95.73
2022-10-18T08:23:27.760Z,95.56
2022-10-18T08:25:54.363Z,95.64
2022-10-18T08:28:21.018Z,96.09
2022-10-18T08:30:47.349Z,96.43
2022-10-18T08:33:13.672Z,96.51
2022-10-18T08:35:40.024Z,96.33
2022-10-18T08:38:06.335Z,96.00
2022-10-18T08:40:33.901Z,95.62
2022-10-18T08:43:10.449Z,95.24
2022-10-18T08:45:42.657Z,94.89
2022-10-18T08:48:32.766Z,94.39
2022-10-18T08:51:00.136Z,93.38
2022-10-18T08:53:34.051Z,92.70
2022-10-18T08:56:11.761Z,92.41
2022-10-18T08:58:39.084Z,92.53
2022-10-18T09:01:46.439Z,91.79
2022-10-18T09:04:34.939Z,91.07
2022-10-18T09:07:03.964Z,90.39
2022-10-18T09:10:01.400Z,90.11
2022-10-18T09:12:49.114Z,89.64
2022-10-18T09:15:36.858Z,88.47
2022-10-18T09:18:13.245Z,87.80
2022-10-18T09:21:05.207Z,87.05
2022-10-18T09:23:39.697Z,87.15
2022-10-18T09:26:13.701Z,87.26
2022-10-18T09:29:05.695Z,87.52
2022-10-18T09:31:40.909Z,87.81
2022-10-18T09:34:29.967Z,87.35
2022-10-18T09:36:57.135Z,87.12
2022-10-18T09:39:31.111Z,86.26
2022-10-18T09:42:03.795Z,86.56
2022-10-18T09:44:48.765Z,85.89
2022-10-18T09:50:06.082Z,85.14
2022-10-18T09:52:44.403Z,85.86
2022-10-18T09:55:22.222Z,87.43
2022-10-18T09:57:54.510Z,87.29
2022-10-18T10:00:27.995Z,86.89
2022-10-18T10:02:54.796Z,86.64
2022-10-18T10:05:21.110Z,87.12
2022-10-18T10:07:49.446Z,87.20
2022-10-18T10:10:23.743Z,87.84
2022-10-18T10:13:02.726Z,87.68
2022-10-18T10:15:33.057Z,86.93
2022-10-18T10:18:24.842Z,84.21
2022-10-18T10:20:59.818Z,83.80
2022-10-18T10:23:30.307Z,82.34
2022-10-18T10:26:02.583Z,82.31
2022-10-18T10:28:32.768Z,82.37
2022-10-18T10:31:24.194Z,84.87
2022-10-18T10:34:14.114Z,82.19
2022-10-18T10:36:54.764Z,81.90
2022-10-18T10:39:23.704Z,82.19
2022-10-18T10:41:56.378Z,80.56
2022-10-18T10:44:25.720Z,80.38
2022-10-18T10:46:53.132Z,80.33
2022-10-18T10:52:36.863Z,76.41
2022-10-18T10:55:11.296Z,77.61
2022-10-18T10:57:51.487Z,78.55
2022-10-18T11:00:44.507Z,77.71
2022-10-18T11:03:28.060Z,77.74
2022-10-18T11:05:56.093Z,78.16
2022-10-18T11:08:26.467Z,78.07
2022-10-18T11:11:22.890Z,77.92
2022-10-18T11:14:07.296Z,79.25
2022-10-18T11:16:55.633Z,78.79
2022-10-18T11:19:37.111Z,78.60
2022-10-18T11:22:06.392Z,79.19
2022-10-18T11:24:35.233Z,77.22
2022-10-18T11:27:26.890Z,76.39
2022-10-18T11:29:59.280Z,75.83
2022-10-18T11:32:38.459Z,76.90
2022-10-18T11:35:38.692Z,73.01
2022-10-18T11:38:32.649Z,70.55
2022-10-18T11:41:10.382Z,71.61
2022-10-18T11:44:01.237Z,71.93
2022-10-18T11:46:43.423Z,70.92
2022-10-18T11:49:34.155Z,71.30
2022-10-18T11:52:24.700Z,70.70
2022-10-18T11:55:20.223Z,71.51
2022-10-18T11:57:50.111Z,71.16
2022-10-18T12:00:32.843Z,71.68
2022-10-18T12:03:13.934Z,72.66
2022-10-18T12:05:42.773Z,73.10
2022-10-18T12:08:14.706Z,72.98
2022-10-18T12:11:05.807Z,71.99
2022-10-18T12:13:32.616Z,70.89
2022-10-18T12:16:02.079Z,70.88
2022-10-18T12:18:31.634Z,69.44
2022-10-18T12:20:59.914Z,70.32
2022-10-18T12:23:29.303Z,70.71
2022-10-18T12:26:01.799Z,70.72
2022-10-18T12:28:51.251Z,69.14
2022-10-18T12:31:24.097Z,66.87
2022-10-18T12:33:56.237Z,67.62
2022-10-18T12:36:22.506Z,66.62
2022-10-18T12:38:57.151Z,68.59
2022-10-18T12:41:27.787Z,65.55
2022-10-18T12:44:06.743Z,65.00
2022-10-18T12:46:50.349Z,63.80
2022-10-18T12:49:40.206Z,67.04
2022-10-18T12:52:26.700Z,62.82
2022-10-18T12:55:16.707Z,64.12
2022-10-18T12:57:52.781Z,64.60
2022-10-18T13:00:31.271Z,63.40
2022-10-18T13:03:26.833Z,61.07
2022-10-18T13:05:59.317Z,62.09
2022-10-18T13:08:28.982Z,56.53
2022-10-18T13:11:01.474Z,53.76
2022-10-18T13:13:43.131Z,49.74
2022-10-18T13:16:23.992Z,52.41
2022-10-18T13:19:14.152Z,55.74
2022-10-18T13:21:53.578Z,54.72
2022-10-18T13:24:35.641Z,56.24
2022-10-18T13:27:34.894Z,57.20
2022-10-18T13:30:09.924Z,59.03
2022-10-18T13:32:59.055Z,57.04
2022-10-18T13:35:52.447Z,57.19
2022-10-18T13:38:54.060Z,56.25
2022-10-18T13:43:53.580Z,52.80
2022-10-18T13:46:21.114Z,52.17
2022-10-18T13:48:49.774Z,54.56
2022-10-18T13:51:32.338Z,55.50
2022-10-18T13:54:17.140Z,56.06
2022-10-18T13:56:54.448Z,54.54
2022-10-18T14:02:50.992Z,54.79
2022-10-18T14:05:36.575Z,53.89
2022-10-18T14:08:11.103Z,54.45
2022-10-18T14:11:02.399Z,53.75
2022-10-18T14:13:43.758Z,54.42
2022-10-18T14:16:47.638Z,53.25
2022-10-18T14:19:13.898Z,54.36
2022-10-18T14:21:47.654Z,53.80
2022-10-18T14:24:20.308Z,54.53
2022-10-18T14:26:46.930Z,55.94
2022-10-18T14:29:18.822Z,55.51
2022-10-18T14:31:53.949Z,54.63
2022-10-18T14:34:21.031Z,55.75
2022-10-18T14:36:49.324Z,54.29
2022-10-18T14:39:21.913Z,54.71
2022-10-18T14:41:54.044Z,56.07
2022-10-18T14:44:26.296Z,55.42
2022-10-18T14:46:59.716Z,55.17
2022-10-18T14:49:26.177Z,56.18
2022-10-18T14:51:55.654Z,56.20
2022-10-18T14:54:32.470Z,56.13
2022-10-18T14:57:00.577Z,56.26
2022-10-18T14:59:29.725Z,56.22
2022-10-18T15:01:55.982Z,55.77
2022-10-18T15:04:27.783Z,56.55
2022-10-18T15:06:55.453Z,55.10
2022-10-18T15:09:24.366Z,55.65
2022-10-18T15:11:51.396Z,55.77
2022-10-18T15:14:20.106Z,55.62
2022-10-18T15:16:48.703Z,55.60
2022-10-18T15:19:14.962Z,56.33
2022-10-18T15:22:33.887Z,56.73
2022-10-18T15:25:10.922Z,57.03
2022-10-18T15:27:39.330Z,56.97
2022-10-18T15:30:08.544Z,57.70
2022-10-18T15:32:35.097Z,55.88
2022-10-18T15:35:15.738Z,56.10
2022-10-18T15:37:44.837Z,56.86
2022-10-18T15:40:23.063Z,57.37
2022-10-18T15:42:50.746Z,57.70
2022-10-18T15:45:26.279Z,58.17
2022-10-18T15:48:07.824Z,58.80
2022-10-18T15:50:41.777Z,59.19
2022-10-18T15:53:20.412Z,60.95
2022-10-18T15:56:05.475Z,61.60
2022-10-18T15:58:45.503Z,61.01
2022-10-18T16:01:14.727Z,61.40
2022-10-18T16:03:41.459Z,61.42
2022-10-18T16:06:12.355Z,61.75
2022-10-18T16:08:43.787Z,63.54
2022-10-18T16:11:19.141Z,64.35
2022-10-18T16:13:45.913Z,64.84
2022-10-18T16:16:16.728Z,65.47
2022-10-18T16:18:43.054Z,65.46
2022-10-18T16:21:24.987Z,65.98
2022-10-18T16:23:51.555Z,66.56
2022-10-18T16:26:19.579Z,66.88
2022-10-18T16:28:46.650Z,67.46
2022-10-18T16:31:17.431Z,67.90
2022-10-18T16:33:44.616Z,68.25
2022-10-18T16:36:19.137Z,69.25
2022-10-18T16:38:46.199Z,70.61
2022-10-18T16:41:12.635Z,71.88
2022-10-18T16:43:39.551Z,72.69
2022-10-18T16:46:07.263Z,73.33
2022-10-18T16:48:34.067Z,72.55
2022-10-18T16:51:01.240Z,72.72
2022-10-18T16:53:27.745Z,74.77
2022-10-18T16:55:59.709Z,74.89
2022-10-18T16:58:28.023Z,74.70
2022-10-18T17:00:54.922Z,76.21
2022-10-18T17:03:21.526Z,74.84
2022-10-18T17:05:47.878Z,74.11
2022-10-18T17:08:23.238Z,74.34
2022-10-18T17:10:51.435Z,74.23
2022-10-18T17:13:17.739Z,74.31
2022-10-18T17:15:44.522Z,75.64
2022-10-18T17:18:16.780Z,76.32
2022-10-18T17:20:43.460Z,76.38
2022-10-18T17:23:09.994Z,76.82
2022-10-18T17:25:46.230Z,77.13
2022-10-18T17:28:23.983Z,77.42
2022-10-18T17:30:50.301Z,77.68
2022-10-18T17:33:16.595Z,76.78
2022-10-18T17:35:44.023Z,74.12
2022-10-18T17:38:10.935Z,73.84
2022-10-18T17:40:41.034Z,73.96
2022-10-18T17:43:07.695Z,74.38
2022-10-18T17:45:34.045Z,73.72
2022-10-18T17:48:00.376Z,73.99
2022-10-18T17:50:29.501Z,74.26
2022-10-18T17:52:55.876Z,73.98
2022-10-18T17:55:22.188Z,74.77
2022-10-18T17:57:48.487Z,75.55
2022-10-18T18:00:14.873Z,77.25
2022-10-18T18:02:42.080Z,78.31
2022-10-18T18:05:09.052Z,78.71
2022-10-18T18:07:35.593Z,78.56
2022-10-18T18:10:02.780Z,77.70
2022-10-18T18:12:29.077Z,76.17
2022-10-18T18:14:55.593Z,75.34
2022-10-18T18:17:33.634Z,75.63
2022-10-18T18:20:00.960Z,76.33
2022-10-18T18:22:27.266Z,77.80
2022-10-18T18:24:53.562Z,78.94
2022-10-18T18:27:19.891Z,79.82
2022-10-18T18:29:46.205Z,80.55
2022-10-18T18:32:12.531Z,80.97
2022-10-18T18:34:38.845Z,81.57
2022-10-18T18:37:05.162Z,82.15
2022-10-18T18:39:31.464Z,82.90
2022-10-18T18:41:57.797Z,83.92
2022-10-18T18:44:24.115Z,84.18
2022-10-18T18:46:50.433Z,84.67
2022-10-18T18:49:16.803Z,85.62
2022-10-18T18:51:43.194Z,86.35
2022-10-18T18:54:11.539Z,87.31
2022-10-18T18:56:38.014Z,87.90
2022-10-18T18:59:05.152Z,87.85
2022-10-18T19:01:34.632Z,87.86
2022-10-18T19:04:01.457Z,88.07
2022-10-18T19:06:30.931Z,88.25
2022-10-18T19:08:58.547Z,88.23
2022-10-18T19:11:24.860Z,88.19
2022-10-18T19:13:51.256Z,88.59
2022-10-18T19:16:21.812Z,89.02
2022-10-18T19:19:00.163Z,89.10
2022-10-18T19:21:30.152Z,89.10
2022-10-18T19:23:57.491Z,89.51
2022-10-18T19:26:31.115Z,89.31
2022-10-18T19:29:09.659Z,89.44
2022-10-18T19:31:36.387Z,89.81
2022-10-18T19:34:07.879Z,90.16
2022-10-18T19:36:35.155Z,90.12
2022-10-18T19:39:02.304Z,90.26
2022-10-18T19:41:36.872Z,90.16
2022-10-18T19:44:03.389Z,90.24
2022-10-18T19:46:29.796Z,90.13
2022-10-18T19:48:56.130Z,90.37
2022-10-18T19:51:26.844Z,90.50
2022-10-18T19:53:55.112Z,90.55
2022-10-18T19:56:23.099Z,90.43
2022-10-18T19:58:49.900Z,90.20
2022-10-18T20:01:17.472Z,90.25
2022-10-18T20:03:44.236Z,90.47
2022-10-18T20:06:10.937Z,90.61
2022-10-18T20:08:38.052Z,90.81
2022-10-18T20:11:07.765Z,90.66
2022-10-18T20:13:35.034Z,90.59
2022-10-18T20:16:04.892Z,90.40
2022-10-18T20:18:31.458Z,90.12
2022-10-18T20:20:57.773Z,90.00
2022-10-18T20:23:24.139Z,90.41
2022-10-18T20:26:01.382Z,90.58
2022-10-18T20:28:28.034Z,90.82
2022-10-18T20:31:02.736Z,90.98
2022-10-18T20:33:29.146Z,91.21
2022-10-18T20:35:55.640Z,91.42
2022-10-18T20:38:22.262Z,91.86
2022-10-18T20:40:48.572Z,92.17
2022-10-18T20:43:14.935Z,92.74
2022-10-18T20:45:41.235Z,92.97
2022-10-18T20:48:07.562Z,93.55
2022-10-18T20:50:33.887Z,93.90
2022-10-18T20:53:00.239Z,93.71
2022-10-18T20:55:28.801Z,93.44
2022-10-18T20:57:55.135Z,93.47
2022-10-18T21:00:21.440Z,93.79
2022-10-18T21:02:47.756Z,93.71
2022-10-18T21:05:14.126Z,93.34
2022-10-18T21:07:40.493Z,93.39
2022-10-18T21:10:07.161Z,94.21
2022-10-18T21:12:35.059Z,94.34
2022-10-18T21:15:01.814Z,94.78
2022-10-18T21:17:28.116Z,95.18
2022-10-18T21:19:54.431Z,95.66
2022-10-18T21:22:20.767Z,96.05
2022-10-18T21:24:47.097Z,96.08
2022-10-18T21:27:13.400Z,96.30
2022-10-18T21:29:39.720Z,96.24
2022-10-18T21:32:06.071Z,96.06
2022-10-18T21:34:32.557Z,95.54
2022-10-18T21:36:58.873Z,94.81
2022-10-18T21:39:25.372Z,94.18
2022-10-18T21:41:51.860Z,94.20
2022-10-18T21:44:18.474Z,93.65
2022-10-18T21:46:45.308Z,93.18
2022-10-18T21:49:12.387Z,92.82
2022-10-18T21:51:39.353Z,93.21
2022-10-18T21:54:08.356Z,93.75
2022-10-18T21:56:35.774Z,93.39
2022-10-18T21:59:03.137Z,93.33
2022-10-18T22:01:34.534Z,93.85
2022-10-18T22:04:03.346Z,94.01
2022-10-18T22:06:31.779Z,93.78
2022-10-18T22:09:01.282Z,93.99
2022-10-18T22:11:31.250Z,94.16
2022-10-18T22:13:58.039Z,94.84
2022-10-18T22:16:25.446Z,95.19
2022-10-18T22:18:56.270Z,95.62
2022-10-18T22:21:22.626Z,95.03
2022-10-18T22:23:51.320Z,95.06
2022-10-18T22:26:24.001Z,95.17
2022-10-18T22:28:58.649Z,95.29
2022-10-18T22:31:28.187Z,95.01
2022-10-18T22:33:59.607Z,94.92
2022-10-18T22:36:27.457Z,94.59
2022-10-18T22:38:54.167Z,94.13
2022-10-18T22:41:20.576Z,94.14
2022-10-18T22:43:47.537Z,94.12
2022-10-18T22:46:14.998Z,94.03
2022-10-18T22:48:41.839Z,94.05
2022-10-18T22:51:08.570Z,94.10
2022-10-18T22:53:35.772Z,93.92
2022-10-18T22:56:02.546Z,94.10
2022-10-18T22:58:29.206Z,94.35
2022-10-18T23:01:07.496Z,94.68
2022-10-18T23:03:35.072Z,95.29
2022-10-18T23:06:02.238Z,95.18
2022-10-18T23:08:29.776Z,95.00
2022-10-18T23:10:59.072Z,94.91
2022-10-18T23:13:26.860Z,94.82
2022-10-18T23:15:53.493Z,95.18
2022-10-18T23:18:19.877Z,95.24
2022-10-18T23:20:46.172Z,95.80
2022-10-18T23:23:13.109Z,95.82
2022-10-18T23:25:39.491Z,95.73
2022-10-18T23:28:06.457Z,95.49
2022-10-18T23:30:32.934Z,95.60
2022-10-18T23:32:59.257Z,95.76
2022-10-18T23:35:25.682Z,96.55
2022-10-18T23:37:52.168Z,96.96
2022-10-18T23:40:18.485Z,96.73
2022-10-18T23:42:44.795Z,96.43
2022-10-18T23:45:11.187Z,95.99
2022-10-18T23:47:37.539Z,95.59
2022-10-18T23:50:04.437Z,95.45
2022-10-18T23:52:30.761Z,95.47
2022-10-18T23:54:57.088Z,95.67
2022-10-18T23:57:23.394Z,95.47
2022-10-18T23:59:49.731Z,95.32
